createdAt,value
2024-05-09T00:00:48.077Z,97963.32
2024-05-09T00:03:36.360Z,97957.85
2024-05-09T00:06:05.234Z,97952.63
2024-05-09T00:08:33.531Z,97955.08
2024-05-09T00:11:01.810Z,97955.79
2024-05-09T00:13:29.798Z,97954.19
2024-05-09T00:15:57.777Z,97953.74
2024-05-09T00:18:26.211Z,97949.44
2024-05-09T00:20:54.762Z,97947.33
2024-05-09T00:23:23.217Z,97949.80
2024-05-09T00:25:51.555Z,97952.23
2024-05-09T00:28:19.392Z,97955.77
2024-05-09T00:30:47.529Z,97954.42
2024-05-09T00:33:15.840Z,97951.19
2024-05-09T00:35:44.450Z,97947.02
2024-05-09T00:38:12.597Z,97946.99
2024-05-09T00:40:42.887Z,97944.26
2024-05-09T00:43:13.412Z,97943.84
2024-05-09T00:45:43.791Z,97944.66
2024-05-09T00:48:17.468Z,97945.96
2024-05-09T00:50:48.934Z,97949.73
2024-05-09T00:53:19.127Z,97951.02
2024-05-09T00:55:48.329Z,97952.13
2024-05-09T00:58:20.969Z,97951.97
2024-05-09T01:00:51.066Z,97950.93
2024-05-09T01:03:20.198Z,97949.45
2024-05-09T01:05:48.573Z,97953.13
2024-05-09T01:08:16.796Z,97948.52
2024-05-09T01:10:46.143Z,97951.30
2024-05-09T01:13:16.192Z,97952.59
2024-05-09T01:15:44.625Z,97949.46
2024-05-09T01:18:13.827Z,97949.80
2024-05-09T01:20:44.594Z,97950.82
2024-05-09T01:23:15.845Z,97949.47
2024-05-09T01:25:46.140Z,97945.71
2024-05-09T01:28:15.993Z,97949.69
2024-05-09T01:30:43.873Z,97946.55
2024-05-09T01:33:12.847Z,97945.76
2024-05-09T01:35:42.903Z,97948.65
2024-05-09T01:38:17.030Z,97948.61
2024-05-09T01:40:46.841Z,97947.48
2024-05-09T01:43:15.998Z,97946.87
2024-05-09T01:45:44.123Z,97946.23
2024-05-09T01:48:12.227Z,97945.98
2024-05-09T01:50:42.573Z,97947.52
2024-05-09T01:53:15.075Z,97946.79
2024-05-09T01:55:44.206Z,97946.10
2024-05-09T01:58:12.939Z,97945.25
2024-05-09T02:00:42.944Z,97943.73
2024-05-09T02:03:15.737Z,97945.86
2024-05-09T02:05:49.326Z,97944.42
2024-05-09T02:08:19.711Z,97943.86
2024-05-09T02:10:50.462Z,97947.41
2024-05-09T02:13:18.810Z,97947.35
2024-05-09T02:15:47.022Z,97949.40
2024-05-09T02:18:15.110Z,97947.80
2024-05-09T02:20:43.843Z,97947.57
2024-05-09T02:23:13.458Z,97947.95
2024-05-09T02:25:41.998Z,97946.84
2024-05-09T02:28:09.835Z,97950.80
2024-05-09T02:30:40.887Z,97953.56
2024-05-09T02:33:12.867Z,97952.60
2024-05-09T02:35:43.998Z,97952.84
2024-05-09T02:38:13.365Z,97952.16
2024-05-09T02:40:41.803Z,97953.94
2024-05-09T02:43:12.805Z,97953.92
2024-05-09T02:45:41.628Z,97951.95
2024-05-09T02:48:12.415Z,97952.65
2024-05-09T02:50:42.061Z,97949.52
2024-05-09T02:53:14.530Z,97950.37
2024-05-09T02:55:43.175Z,97950.00
2024-05-09T02:58:12.178Z,97948.29
2024-05-09T03:00:42.280Z,97947.68
2024-05-09T03:03:14.088Z,97952.06
2024-05-09T03:05:45.661Z,97954.84
2024-05-09T03:08:14.372Z,97956.48
2024-05-09T03:10:42.846Z,97951.57
2024-05-09T03:13:14.724Z,97950.81
2024-05-09T03:15:44.440Z,97951.38
2024-05-09T03:18:12.969Z,97956.02
2024-05-09T03:20:44.189Z,97963.52
2024-05-09T03:23:12.644Z,97964.98
2024-05-09T03:25:40.901Z,97963.15
2024-05-09T03:28:09.062Z,97966.43
2024-05-09T03:30:41.862Z,97967.98
2024-05-09T03:33:16.752Z,97973.17
2024-05-09T03:35:45.469Z,97973.54
2024-05-09T03:38:14.117Z,97975.30
2024-05-09T03:40:50.219Z,97977.00
2024-05-09T03:43:20.042Z,97979.17
2024-05-09T03:45:50.248Z,97979.80
2024-05-09T03:48:18.547Z,97983.75
2024-05-09T03:50:47.171Z,97982.50
2024-05-09T03:53:15.556Z,97985.67
2024-05-09T03:55:44.028Z,97989.81
2024-05-09T03:58:14.144Z,97990.64
2024-05-09T04:00:43.028Z,97995.19
2024-05-09T04:03:12.698Z,97999.58
2024-05-09T04:05:43.711Z,98000.78
2024-05-09T04:08:15.305Z,98005.09
2024-05-09T04:10:43.654Z,98008.35
2024-05-09T04:13:11.878Z,98008.25
2024-05-09T04:15:40.009Z,98011.90
2024-05-09T04:18:08.513Z,98014.14
2024-05-09T04:20:39.693Z,98012.47
2024-05-09T04:23:14.247Z,98014.56
2024-05-09T04:25:44.965Z,98012.58
2024-05-09T04:28:14.246Z,98012.86
2024-05-09T04:30:42.766Z,98009.94
2024-05-09T04:33:13.722Z,98011.05
2024-05-09T04:35:43.756Z,98012.13
2024-05-09T04:38:13.826Z,98011.84
2024-05-09T04:40:43.256Z,98016.02
2024-05-09T04:43:16.938Z,98017.38
2024-05-09T04:45:45.649Z,98019.40
2024-05-09T04:48:13.882Z,98019.32
2024-05-09T04:50:42.253Z,98019.52
2024-05-09T04:53:16.080Z,98019.73
2024-05-09T04:55:44.718Z,98022.79
2024-05-09T04:58:12.982Z,98023.02
2024-05-09T05:00:41.760Z,98025.16
2024-05-09T05:03:13.727Z,98024.19
2024-05-09T05:05:45.815Z,98023.70
2024-05-09T05:08:16.279Z,98019.55
2024-05-09T05:10:46.795Z,98019.01
2024-05-09T05:13:16.334Z,98024.91
2024-05-09T05:15:44.397Z,98030.91
2024-05-09T05:18:12.478Z,98035.20
2024-05-09T05:20:44.349Z,98038.98
2024-05-09T05:23:18.463Z,98043.05
2024-05-09T05:25:48.171Z,98046.64
2024-05-09T05:28:16.901Z,98045.48
2024-05-09T05:30:46.169Z,98051.48
2024-05-09T05:33:15.589Z,98054.85
2024-05-09T05:35:44.408Z,98056.80
2024-05-09T05:38:12.456Z,98056.73
2024-05-09T05:40:41.328Z,98060.61
2024-05-09T05:43:16.548Z,98064.48
2024-05-09T05:45:45.573Z,98072.16
2024-05-09T05:48:18.187Z,98070.46
2024-05-09T05:50:46.787Z,98069.36
2024-05-09T05:53:15.161Z,98069.05
2024-05-09T05:55:43.306Z,98070.17
2024-05-09T05:58:12.431Z,98069.54
2024-05-09T06:00:42.091Z,98071.98
2024-05-09T06:03:13.268Z,98075.95
2024-05-09T06:05:46.380Z,98078.55
2024-05-09T06:08:14.744Z,98075.42
2024-05-09T06:10:43.180Z,98075.38
2024-05-09T06:13:13.207Z,98075.30
2024-05-09T06:15:42.454Z,98072.91
2024-05-09T06:18:12.267Z,98067.45
2024-05-09T06:20:43.344Z,98065.96
2024-05-09T06:23:13.013Z,98063.05
2024-05-09T06:25:41.923Z,98066.41
2024-05-09T06:28:10.982Z,98069.27
2024-05-09T06:30:42.197Z,98068.06
2024-05-09T06:33:13.828Z,98070.86
2024-05-09T06:35:44.825Z,98071.84
2024-05-09T06:38:13.386Z,98072.52
2024-05-09T06:40:43.584Z,98077.83
2024-05-09T06:43:18.386Z,98075.65
2024-05-09T06:45:54.343Z,98077.92
2024-05-09T06:48:24.166Z,98079.41
2024-05-09T06:50:52.634Z,98081.91
2024-05-09T06:53:23.180Z,98081.52
2024-05-09T06:55:51.751Z,98082.68
2024-05-09T06:58:19.618Z,98085.02
2024-05-09T07:00:47.671Z,98086.34
2024-05-09T07:03:18.230Z,98088.49
2024-05-09T07:05:49.134Z,98096.06
2024-05-09T07:08:18.397Z,98098.70
2024-05-09T07:10:46.761Z,98095.23
2024-05-09T07:13:15.680Z,98098.20
2024-05-09T07:15:43.991Z,98096.45
2024-05-09T07:18:17.909Z,98096.92
2024-05-09T07:20:48.216Z,98098.55
2024-05-09T07:23:16.829Z,98094.17
2024-05-09T07:25:45.369Z,98096.06
2024-05-09T07:28:17.845Z,98100.77
2024-05-09T07:30:46.637Z,98101.38
2024-05-09T07:33:19.183Z,98101.23
2024-05-09T07:35:47.679Z,98103.11
2024-05-09T07:38:15.748Z,98101.44
2024-05-09T07:40:43.952Z,98103.57
2024-05-09T07:43:13.013Z,98104.00
2024-05-09T07:45:50.637Z,98108.08
2024-05-09T07:50:00.966Z,98112.63
2024-05-09T07:53:49.108Z,98118.48
2024-05-09T07:56:22.582Z,98119.31
2024-05-09T07:58:55.845Z,98121.02
2024-05-09T08:01:26.345Z,98121.71
2024-05-09T08:03:55.372Z,98124.95
2024-05-09T08:06:24.065Z,98123.21
2024-05-09T08:08:52.218Z,98126.58
2024-05-09T08:11:20.384Z,98128.33
2024-05-09T08:13:48.732Z,98129.32
2024-05-09T08:16:16.715Z,98130.11
2024-05-09T08:18:44.912Z,98133.14
2024-05-09T08:21:13.158Z,98132.76
2024-05-09T08:23:40.981Z,98137.66
2024-05-09T08:26:09.034Z,98137.31
2024-05-09T08:28:37.310Z,98137.55
2024-05-09T08:31:07.050Z,98134.94
2024-05-09T08:33:35.773Z,98135.59
2024-05-09T08:36:04.273Z,98136.17
2024-05-09T08:38:32.144Z,98139.30
2024-05-09T08:41:03.360Z,98139.45
2024-05-09T08:43:31.395Z,98146.86
2024-05-09T08:46:00.063Z,98146.71
2024-05-09T08:48:29.959Z,98145.38
2024-05-09T08:50:59.491Z,98148.14
2024-05-09T08:53:28.126Z,98148.98
2024-05-09T08:56:00.867Z,98151.67
2024-05-09T08:58:31.615Z,98154.21
2024-05-09T09:01:02.484Z,98157.05
2024-05-09T09:03:34.363Z,98156.10
2024-05-09T09:06:07.609Z,98155.65
2024-05-09T09:08:38.974Z,98153.50
2024-05-09T09:11:06.995Z,98149.04
2024-05-09T09:13:35.149Z,98146.51
2024-05-09T09:16:03.679Z,98148.20
2024-05-09T09:18:32.875Z,98153.05
2024-05-09T09:21:02.988Z,98155.80
2024-05-09T09:23:31.403Z,98154.98
2024-05-09T09:26:00.135Z,98157.29
2024-05-09T09:28:29.488Z,98156.79
2024-05-09T09:31:04.404Z,98152.05
2024-05-09T09:33:35.277Z,98155.43
2024-05-09T09:36:05.019Z,98150.64
2024-05-09T09:38:37.434Z,98153.27
2024-05-09T09:41:08.069Z,98148.42
2024-05-09T09:43:37.321Z,98150.24
2024-05-09T09:46:08.729Z,98145.98
2024-05-09T09:48:41.087Z,98145.59
2024-05-09T09:51:09.975Z,98146.12
2024-05-09T09:53:38.705Z,98145.69
2024-05-09T09:56:09.966Z,98148.89
2024-05-09T09:58:39.955Z,98149.27
2024-05-09T10:01:08.169Z,98147.63
2024-05-09T10:03:37.039Z,98151.41
2024-05-09T10:06:07.675Z,98148.69
2024-05-09T10:08:36.633Z,98152.94
2024-05-09T10:11:05.206Z,98151.88
2024-05-09T10:13:34.963Z,98152.36
2024-05-09T10:16:11.294Z,98154.76
2024-05-09T10:18:40.178Z,98154.98
2024-05-09T10:21:18.629Z,98154.09
2024-05-09T10:24:08.833Z,98147.65
2024-05-09T10:26:38.392Z,98148.92
2024-05-09T10:29:13.098Z,98150.89
2024-05-09T10:31:42.884Z,98153.86
2024-05-09T10:34:21.916Z,98151.63
2024-05-09T10:36:54.554Z,98148.90
2024-05-09T10:39:25.628Z,98148.91
2024-05-09T10:41:53.540Z,98155.48
2024-05-09T10:44:22.037Z,98155.34
2024-05-09T10:46:50.548Z,98151.48
2024-05-09T10:49:18.755Z,98148.38
2024-05-09T10:51:48.525Z,98148.34
2024-05-09T10:54:17.107Z,98150.95
2024-05-09T10:56:44.985Z,98151.92
2024-05-09T10:59:12.840Z,98151.36
2024-05-09T11:01:41.452Z,98150.09
2024-05-09T11:04:09.687Z,98152.80
2024-05-09T11:06:38.660Z,98151.58
2024-05-09T11:09:07.669Z,98150.73
2024-05-09T11:11:36.023Z,98149.11
2024-05-09T11:14:12.776Z,98149.80
2024-05-09T11:16:40.650Z,98148.38
2024-05-09T11:19:15.027Z,98150.99
2024-05-09T11:21:43.417Z,98145.20
2024-05-09T11:24:12.034Z,98149.32
2024-05-09T11:26:40.058Z,98145.88
2024-05-09T11:29:08.006Z,98145.36
2024-05-09T11:31:48.432Z,98142.94
2024-05-09T11:34:16.729Z,98140.58
2024-05-09T11:36:45.090Z,98139.94
2024-05-09T11:39:14.424Z,98135.88
2024-05-09T11:41:42.679Z,98134.95
2024-05-09T11:44:11.087Z,98135.83
2024-05-09T11:46:39.182Z,98138.29
2024-05-09T11:49:08.648Z,98135.46
2024-05-09T11:51:36.983Z,98136.35
2024-05-09T11:54:05.001Z,98138.23
2024-05-09T11:56:33.111Z,98138.65
2024-05-09T11:59:01.254Z,98139.31
2024-05-09T12:01:29.298Z,98140.36
2024-05-09T12:03:57.587Z,98137.29
2024-05-09T12:06:25.929Z,98133.48
2024-05-09T12:08:54.077Z,98128.94
2024-05-09T12:11:22.386Z,98127.95
2024-05-09T12:13:50.714Z,98130.91
2024-05-09T12:16:18.658Z,98131.94
2024-05-09T12:18:46.691Z,98129.39
2024-05-09T12:21:17.264Z,98128.56
2024-05-09T12:23:45.380Z,98127.86
2024-05-09T12:26:15.669Z,98126.94
2024-05-09T12:28:43.947Z,98127.87
2024-05-09T12:31:11.930Z,98123.83
2024-05-09T12:33:40.207Z,98124.05
2024-05-09T12:36:08.796Z,98120.55
2024-05-09T12:38:36.598Z,98120.77
2024-05-09T12:41:04.957Z,98121.60
2024-05-09T12:43:32.863Z,98119.77
2024-05-09T12:46:01.572Z,98115.11
2024-05-09T12:48:30.050Z,98114.77
2024-05-09T12:50:58.065Z,98118.09
2024-05-09T12:53:26.402Z,98118.16
2024-05-09T12:55:59.877Z,98118.21
2024-05-09T12:58:30.809Z,98118.23
2024-05-09T13:00:58.858Z,98118.73
2024-05-09T13:03:27.103Z,98120.05
2024-05-09T13:05:55.367Z,98120.09
2024-05-09T13:08:23.414Z,98117.25
2024-05-09T13:10:51.517Z,98119.47
2024-05-09T13:13:19.978Z,98116.35
2024-05-09T13:15:48.221Z,98117.25
2024-05-09T13:18:16.750Z,98115.60
2024-05-09T13:20:44.949Z,98117.98
2024-05-09T13:23:13.011Z,98116.64
2024-05-09T13:25:41.038Z,98113.27
2024-05-09T13:28:09.537Z,98112.65
2024-05-09T13:30:40.781Z,98113.32
2024-05-09T13:33:12.164Z,98114.80
2024-05-09T13:35:48.711Z,98110.26
2024-05-09T13:38:20.367Z,98113.23
2024-05-09T13:40:50.249Z,98116.63
2024-05-09T13:43:20.672Z,98119.06
2024-05-09T13:45:49.041Z,98121.43
2024-05-09T13:48:17.510Z,98124.50
2024-05-09T13:50:45.543Z,98123.98
2024-05-09T13:53:13.975Z,98125.11
2024-05-09T13:55:42.012Z,98122.38
2024-05-09T13:58:10.391Z,98125.11
2024-05-09T14:00:46.148Z,98128.61
2024-05-09T14:03:19.773Z,98128.21
2024-05-09T14:05:51.099Z,98131.35
2024-05-09T14:08:21.822Z,98133.96
2024-05-09T14:10:50.755Z,98131.52
2024-05-09T14:13:19.724Z,98130.79
2024-05-09T14:15:48.470Z,98134.51
2024-05-09T14:18:17.254Z,98136.67
2024-05-09T14:20:45.379Z,98137.43
2024-05-09T14:23:14.467Z,98138.23
2024-05-09T14:25:43.926Z,98139.86
2024-05-09T14:28:13.624Z,98144.23
2024-05-09T14:30:42.895Z,98141.48
2024-05-09T14:33:11.263Z,98141.48
2024-05-09T14:35:39.739Z,98137.77
2024-05-09T14:38:09.227Z,98139.76
2024-05-09T14:40:42.384Z,98136.52
2024-05-09T14:43:14.488Z,98136.34
2024-05-09T14:45:44.331Z,98137.21
2024-05-09T14:48:16.132Z,98133.85
2024-05-09T14:50:44.290Z,98133.02
2024-05-09T14:53:13.835Z,98131.92
2024-05-09T14:55:43.416Z,98130.34
2024-05-09T14:58:13.173Z,98130.45
2024-05-09T15:00:46.548Z,98133.13
2024-05-09T15:03:18.673Z,98137.77
2024-05-09T15:05:47.865Z,98140.95
2024-05-09T15:08:17.591Z,98139.31
2024-05-09T15:10:46.119Z,98136.59
2024-05-09T15:13:16.529Z,98138.77
2024-05-09T15:15:45.367Z,98142.84
2024-05-09T15:18:17.257Z,98143.56
2024-05-09T15:20:45.832Z,98140.44
2024-05-09T15:23:13.990Z,98131.77
2024-05-09T15:25:44.151Z,98129.00
2024-05-09T15:28:12.004Z,98125.92
2024-05-09T15:30:42.782Z,98129.16
2024-05-09T15:33:13.574Z,98128.85
2024-05-09T15:35:41.870Z,98128.77
2024-05-09T15:38:10.009Z,98126.36
2024-05-09T15:40:40.518Z,98125.05
2024-05-09T15:43:10.935Z,98126.45
2024-05-09T15:45:41.362Z,98133.50
2024-05-09T15:48:10.873Z,98135.74
2024-05-09T15:50:41.755Z,98140.32
2024-05-09T15:53:13.266Z,98140.68
2024-05-09T15:55:42.983Z,98142.31
2024-05-09T15:58:12.220Z,98140.77
2024-05-09T16:00:43.698Z,98143.86
2024-05-09T16:03:14.613Z,98144.63
2024-05-09T16:05:45.701Z,98147.17
2024-05-09T16:08:14.967Z,98152.69
2024-05-09T16:10:45.801Z,98149.65
2024-05-09T16:13:15.593Z,98145.98
2024-05-09T16:15:44.075Z,98146.00
2024-05-09T16:18:13.036Z,98148.15
2024-05-09T16:20:42.655Z,98152.34
2024-05-09T16:23:12.590Z,98151.27
2024-05-09T16:25:45.997Z,98155.25
2024-05-09T16:28:14.424Z,98159.95
2024-05-09T16:30:42.498Z,98160.33
2024-05-09T16:33:11.708Z,98162.88
2024-05-09T16:35:40.630Z,98164.95
2024-05-09T16:38:08.943Z,98165.73
2024-05-09T16:40:40.323Z,98163.58
2024-05-09T16:43:11.116Z,98165.29
2024-05-09T16:45:40.854Z,98166.20
2024-05-09T16:48:09.528Z,98169.55
2024-05-09T16:50:38.804Z,98171.45
2024-05-09T16:53:07.412Z,98170.71
2024-05-09T16:55:36.443Z,98171.36
2024-05-09T16:58:08.129Z,98174.36
2024-05-09T17:00:41.486Z,98175.95
2024-05-09T17:03:14.610Z,98175.80
2024-05-09T17:05:48.447Z,98174.16
2024-05-09T17:08:20.306Z,98170.86
2024-05-09T17:10:49.698Z,98171.68
2024-05-09T17:13:18.890Z,98173.07
2024-05-09T17:15:51.897Z,98173.86
2024-05-09T17:18:20.228Z,98172.60
2024-05-09T17:20:50.072Z,98175.64
2024-05-09T17:23:18.128Z,98175.11
2024-05-09T17:25:46.247Z,98174.73
2024-05-09T17:28:14.541Z,98174.20
2024-05-09T17:30:43.183Z,98177.96
2024-05-09T17:33:12.745Z,98183.06
2024-05-09T17:35:41.792Z,98185.45
2024-05-09T17:38:09.856Z,98190.86
2024-05-09T17:40:38.943Z,98188.55
2024-05-09T17:43:10.437Z,98188.70
2024-05-09T17:45:40.633Z,98191.41
2024-05-09T17:48:11.568Z,98187.80
2024-05-09T17:50:41.701Z,98190.69
2024-05-09T17:53:11.201Z,98190.61
2024-05-09T17:55:40.251Z,98189.33
2024-05-09T17:58:09.609Z,98188.27
2024-05-09T18:00:40.826Z,98189.84
2024-05-09T18:03:12.027Z,98191.23
2024-05-09T18:05:44.252Z,98193.05
2024-05-09T18:08:13.547Z,98195.41
2024-05-09T18:10:42.283Z,98198.17
2024-05-09T18:13:12.223Z,98200.64
2024-05-09T18:15:41.974Z,98202.84
2024-05-09T18:18:11.246Z,98211.51
2024-05-09T18:20:44.038Z,98215.98
2024-05-09T18:23:16.678Z,98214.14
2024-05-09T18:25:47.281Z,98216.66
2024-05-09T18:28:16.924Z,98220.33
2024-05-09T18:30:46.236Z,98222.11
2024-05-09T18:33:14.917Z,98225.13
2024-05-09T18:35:44.440Z,98227.14
2024-05-09T18:38:12.954Z,98231.59
2024-05-09T18:40:43.567Z,98235.83
2024-05-09T18:43:13.408Z,98229.86
2024-05-09T18:45:41.745Z,98232.73
2024-05-09T18:48:10.373Z,98233.15
2024-05-09T18:50:40.829Z,98230.91
2024-05-09T18:53:13.091Z,98232.30
2024-05-09T18:55:42.599Z,98233.97
2024-05-09T18:58:11.014Z,98234.89
2024-05-09T19:00:41.568Z,98241.75
2024-05-09T19:03:14.121Z,98244.69
2024-05-09T19:05:45.091Z,98241.44
2024-05-09T19:08:15.611Z,98245.09
2024-05-09T19:10:45.329Z,98249.20
2024-05-09T19:13:14.780Z,98251.27
2024-05-09T19:15:43.947Z,98255.00
2024-05-09T19:18:14.372Z,98262.58
2024-05-09T19:20:43.962Z,98267.89
2024-05-09T19:23:12.514Z,98268.00
2024-05-09T19:25:40.720Z,98271.09
2024-05-09T19:28:09.194Z,98274.81
2024-05-09T19:30:41.121Z,98276.76
2024-05-09T19:33:13.109Z,98276.03
2024-05-09T19:35:43.183Z,98280.33
2024-05-09T19:38:12.410Z,98282.36
2024-05-09T19:40:41.597Z,98284.76
2024-05-09T19:43:10.853Z,98287.84
2024-05-09T19:45:39.127Z,98292.48
2024-05-09T19:48:08.071Z,98297.94
2024-05-09T19:50:41.901Z,98297.41
2024-05-09T19:53:14.392Z,98301.23
2024-05-09T19:55:43.211Z,98302.33
2024-05-09T19:58:12.646Z,98305.06
2024-05-09T20:00:43.174Z,98306.48
2024-05-09T20:03:15.273Z,98306.98
2024-05-09T20:05:46.580Z,98305.44
2024-05-09T20:08:15.395Z,98305.63
2024-05-09T20:10:43.875Z,98304.80
2024-05-09T20:13:14.248Z,98305.91
2024-05-09T20:15:42.584Z,98310.27
2024-05-09T20:18:10.896Z,98309.19
2024-05-09T20:20:42.412Z,98308.13
2024-05-09T20:23:13.558Z,98307.07
2024-05-09T20:25:42.196Z,98312.27
2024-05-09T20:28:10.985Z,98312.36
2024-05-09T20:30:39.602Z,98313.89
2024-05-09T20:33:09.069Z,98315.23
2024-05-09T20:35:38.568Z,98315.16
2024-05-09T20:38:07.247Z,98313.42
2024-05-09T20:40:38.266Z,98315.17
2024-05-09T20:43:09.669Z,98313.98
2024-05-09T20:45:38.492Z,98312.35
2024-05-09T20:48:08.339Z,98308.98
2024-05-09T20:50:40.505Z,98315.40
2024-05-09T20:53:13.507Z,98319.23
2024-05-09T20:55:45.489Z,98318.79
2024-05-09T20:58:14.101Z,98318.08
2024-05-09T21:00:45.482Z,98317.44
2024-05-09T21:03:16.577Z,98314.23
2024-05-09T21:05:47.334Z,98315.33
2024-05-09T21:08:16.226Z,98315.83
2024-05-09T21:10:44.633Z,98316.52
2024-05-09T21:13:12.667Z,98313.92
2024-05-09T21:15:41.378Z,98314.98
2024-05-09T21:18:09.365Z,98316.40
2024-05-09T21:20:37.407Z,98315.65
2024-05-09T21:23:05.928Z,98313.90
2024-05-09T21:25:34.076Z,98318.71
2024-05-09T21:28:04.038Z,98321.48
2024-05-09T21:30:40.633Z,98320.95
2024-05-09T21:33:13.365Z,98320.54
2024-05-09T21:35:43.984Z,98321.02
2024-05-09T21:38:14.618Z,98319.71
2024-05-09T21:40:44.219Z,98320.39
2024-05-09T21:43:12.919Z,98321.69
2024-05-09T21:45:41.289Z,98325.60
2024-05-09T21:48:09.432Z,98323.84
2024-05-09T21:50:41.046Z,98324.61
2024-05-09T21:53:12.499Z,98325.27
2024-05-09T21:55:42.395Z,98328.82
2024-05-09T21:58:12.243Z,98329.92
2024-05-09T22:00:43.331Z,98330.16
2024-05-09T22:03:12.590Z,98333.69
2024-05-09T22:05:43.505Z,98331.82
2024-05-09T22:08:11.917Z,98331.48
2024-05-09T22:10:39.911Z,98333.42
2024-05-09T22:13:08.901Z,98335.54
2024-05-09T22:15:40.098Z,98336.08
2024-05-09T22:18:10.860Z,98338.26
2024-05-09T22:20:45.330Z,98337.83
2024-05-09T22:23:15.417Z,98331.85
2024-05-09T22:25:43.720Z,98330.67
2024-05-09T22:28:14.367Z,98331.59
2024-05-09T22:30:45.358Z,98332.04
2024-05-09T22:33:14.612Z,98329.64
2024-05-09T22:35:42.752Z,98332.81
2024-05-09T22:38:11.080Z,98335.73
2024-05-09T22:40:46.904Z,98336.40
2024-05-09T22:43:20.672Z,98334.92
2024-05-09T22:45:50.349Z,98334.51
2024-05-09T22:48:19.379Z,98334.40
2024-05-09T22:50:47.587Z,98336.96
2024-05-09T22:53:15.651Z,98335.59
2024-05-09T22:55:43.716Z,98335.73
2024-05-09T22:58:11.567Z,98335.59
2024-05-09T23:00:40.014Z,98329.90
2024-05-09T23:03:08.694Z,98329.30
2024-05-09T23:05:36.872Z,98328.68
2024-05-09T23:08:05.546Z,98324.23
2024-05-09T23:10:36.803Z,98323.08
2024-05-09T23:13:07.915Z,98326.05
2024-05-09T23:15:38.458Z,98325.95
2024-05-09T23:18:07.720Z,98323.00
2024-05-09T23:20:39.055Z,98321.73
2024-05-09T23:23:10.465Z,98322.59
2024-05-09T23:25:43.558Z,98322.89
2024-05-09T23:28:12.582Z,98323.98
2024-05-09T23:30:42.025Z,98323.17
2024-05-09T23:33:13.140Z,98321.21
2024-05-09T23:35:46.036Z,98322.92
2024-05-09T23:38:14.125Z,98321.88
2024-05-09T23:40:43.133Z,98319.84
2024-05-09T23:43:14.114Z,98316.25
2024-05-09T23:45:43.157Z,98315.80
2024-05-09T23:48:11.617Z,98317.41
2024-05-09T23:50:40.866Z,98314.05
2024-05-09T23:53:10.450Z,98311.30
2024-05-09T23:55:39.684Z,98314.39
2024-05-09T23:58:09.878Z,98316.60
